FIN50C EFHK-EDDH
Flight info
| Callsign | FIN50C |
|---|---|
| Flight time | N/A |
| Altitude | 34000 |
| Route | NUNTO Y369 REKDO DCT KOSKA DCT GIMRU T503 MICOS N850 BOGMU BOGMU3P |
| Aircraft | B738/M-SDE2E3FGHIRWXY/LB1 |
Departure
| Time | 2026-04-23 19:41 |
|---|---|
| Airport | Helsinki Vantaa Airport (EFHK) |
Arrival
| Time | N/A |
|---|---|
| Airport | Hamburg Helmut Schmidt Airport (EDDH) |
| Time | Latitude | Longitude | Altitude | Speed | Heading |
|---|---|---|---|---|---|
| 2026-04-23 18:57 | 60.31646 | 24.95928 | 166 ft | 0 kts | 129° |
| 2026-04-23 19:14 | 60.31704 | 24.96117 | 166 ft | 0 kts | 130° |
| 2026-04-23 19:27 | 60.31739 | 24.96052 | 166 ft | 4 kts | 150° |
| 2026-04-23 19:28 | 60.31788 | 24.96036 | 166 ft | 4 kts | 220° |
| 2026-04-23 19:28 | 60.31792 | 24.96042 | 166 ft | 1 kts | 228° |
| 2026-04-23 19:31 | 60.31791 | 24.96042 | 166 ft | 0 kts | 228° |
| 2026-04-23 19:31 | 60.31781 | 24.96018 | 166 ft | 5 kts | 228° |
| 2026-04-23 19:31 | 60.31742 | 24.95931 | 166 ft | 11 kts | 228° |
| 2026-04-23 19:32 | 60.31683 | 24.95802 | 166 ft | 10 kts | 227° |
| 2026-04-23 19:32 | 60.31644 | 24.95709 | 166 ft | 7 kts | 241° |
| 2026-04-23 19:32 | 60.31649 | 24.95654 | 166 ft | 4 kts | 298° |
| 2026-04-23 19:32 | 60.31667 | 24.95610 | 166 ft | 4 kts | 312° |
| 2026-04-23 19:33 | 60.31693 | 24.95558 | 166 ft | 6 kts | 314° |
| 2026-04-23 19:33 | 60.31699 | 24.95476 | 169 ft | 6 kts | 252° |
| 2026-04-23 19:33 | 60.31625 | 24.95298 | 169 ft | 11 kts | 224° |
| 2026-04-23 19:34 | 60.31568 | 24.95164 | 169 ft | 13 kts | 230° |
| 2026-04-23 19:34 | 60.31506 | 24.95026 | 168 ft | 14 kts | 229° |
| 2026-04-23 19:34 | 60.31354 | 24.94694 | 161 ft | 19 kts | 229° |
| 2026-04-23 19:35 | 60.31260 | 24.94488 | 158 ft | 21 kts | 227° |
| 2026-04-23 19:35 | 60.31167 | 24.94280 | 157 ft | 19 kts | 228° |
| 2026-04-23 19:35 | 60.31077 | 24.94086 | 156 ft | 18 kts | 227° |
| 2026-04-23 19:35 | 60.31030 | 24.93923 | 158 ft | 12 kts | 270° |
| 2026-04-23 19:36 | 60.31038 | 24.93859 | 158 ft | 0 kts | 297° |
| 2026-04-23 19:36 | 60.31048 | 24.93825 | 158 ft | 5 kts | 300° |
| 2026-04-23 19:37 | 60.31070 | 24.93764 | 158 ft | 7 kts | 313° |
| 2026-04-23 19:37 | 60.31132 | 24.93691 | 158 ft | 9 kts | 350° |
| 2026-04-23 19:37 | 60.31172 | 24.93733 | 157 ft | 0 kts | 45° |
| 2026-04-23 19:40 | 60.31201 | 24.93792 | 158 ft | 30 kts | 45° |
| 2026-04-23 19:41 | 60.31542 | 24.94543 | 163 ft | 112 kts | 47° |
| 2026-04-23 19:41 | 60.31965 | 24.95464 | 183 ft | 156 kts | 45° |
| 2026-04-23 19:41 | 60.32711 | 24.97102 | 936 ft | 159 kts | 48° |
| 2026-04-23 19:41 | 60.33509 | 24.98940 | 1481 ft | 192 kts | 44° |
| 2026-04-23 19:42 | 60.34468 | 25.01021 | 1955 ft | 212 kts | 44° |
| 2026-04-23 19:42 | 60.35507 | 25.03293 | 2459 ft | 225 kts | 44° |
| 2026-04-23 19:42 | 60.36574 | 25.05641 | 3178 ft | 228 kts | 44° |
| 2026-04-23 19:42 | 60.37650 | 25.08022 | 3901 ft | 231 kts | 44° |
| 2026-04-23 19:43 | 60.38743 | 25.10440 | 4634 ft | 235 kts | 43° |
| 2026-04-23 19:43 | 60.40057 | 25.12466 | 5145 ft | 246 kts | 16° |
| 2026-04-23 19:43 | 60.41760 | 25.12978 | 5932 ft | 251 kts | 0° |
| 2026-04-23 19:43 | 60.43519 | 25.13028 | 6819 ft | 254 kts | 359° |
| 2026-04-23 19:44 | 60.45272 | 25.12988 | 7836 ft | 251 kts | 352° |
| 2026-04-23 19:44 | 60.46858 | 25.11630 | 8800 ft | 253 kts | 321° |
| 2026-04-23 19:44 | 60.47948 | 25.08785 | 9742 ft | 262 kts | 301° |
| 2026-04-23 19:44 | 60.48457 | 25.05136 | 10343 ft | 284 kts | 281° |
| 2026-04-23 19:45 | 60.48226 | 25.00906 | 10561 ft | 321 kts | 260° |
| 2026-04-23 19:45 | 60.47271 | 24.96651 | 11120 ft | 342 kts | 245° |
| 2026-04-23 19:45 | 60.46046 | 24.92479 | 11837 ft | 346 kts | 247° |
| 2026-04-23 19:45 | 60.44874 | 24.88195 | 12644 ft | 349 kts | 249° |
| 2026-04-23 19:46 | 60.43701 | 24.83842 | 13413 ft | 354 kts | 249° |
| 2026-04-23 19:46 | 60.42509 | 24.79427 | 14108 ft | 359 kts | 249° |
| 2026-04-23 19:46 | 60.41299 | 24.74975 | 14817 ft | 363 kts | 250° |
| 2026-04-23 19:46 | 60.40071 | 24.70491 | 15549 ft | 366 kts | 250° |
| 2026-04-23 19:47 | 60.38826 | 24.65965 | 16251 ft | 370 kts | 250° |
| 2026-04-23 19:47 | 60.37564 | 24.61398 | 16940 ft | 374 kts | 250° |
| 2026-04-23 19:47 | 60.36284 | 24.56782 | 17644 ft | 378 kts | 250° |
| 2026-04-23 19:47 | 60.34989 | 24.52127 | 18313 ft | 382 kts | 251° |
| 2026-04-23 19:48 | 60.33678 | 24.47423 | 18869 ft | 387 kts | 251° |
| 2026-04-23 19:48 | 60.32346 | 24.42656 | 19433 ft | 392 kts | 251° |
| 2026-04-23 19:48 | 60.30999 | 24.37845 | 19988 ft | 397 kts | 251° |
| 2026-04-23 19:48 | 60.29630 | 24.32971 | 20543 ft | 401 kts | 251° |
| 2026-04-23 19:49 | 60.28245 | 24.28047 | 21034 ft | 406 kts | 251° |
| 2026-04-23 19:49 | 60.26839 | 24.23060 | 21561 ft | 411 kts | 251° |
| 2026-04-23 19:49 | 60.25416 | 24.18027 | 22100 ft | 416 kts | 251° |
| 2026-04-23 19:49 | 60.23978 | 24.12953 | 22619 ft | 420 kts | 251° |
| 2026-04-23 19:50 | 60.22520 | 24.07818 | 23144 ft | 424 kts | 251° |
| 2026-04-23 19:50 | 60.21047 | 24.02643 | 23581 ft | 428 kts | 251° |
| 2026-04-23 19:50 | 60.19580 | 23.97505 | 24029 ft | 431 kts | 251° |
| 2026-04-23 19:50 | 60.18081 | 23.92270 | 24503 ft | 433 kts | 252° |
| 2026-04-23 19:51 | 60.16574 | 23.87016 | 24962 ft | 435 kts | 252° |
| 2026-04-23 19:51 | 60.15056 | 23.81734 | 25403 ft | 438 kts | 252° |
| 2026-04-23 19:51 | 60.13528 | 23.76429 | 25843 ft | 441 kts | 252° |
| 2026-04-23 19:51 | 60.11986 | 23.71086 | 26268 ft | 443 kts | 252° |
| 2026-04-23 19:52 | 60.10435 | 23.65722 | 26693 ft | 446 kts | 252° |
| 2026-04-23 19:52 | 60.08872 | 23.60329 | 27052 ft | 449 kts | 251° |
| 2026-04-23 19:52 | 60.07295 | 23.54898 | 27436 ft | 452 kts | 251° |
| 2026-04-23 19:52 | 60.05700 | 23.49422 | 27618 ft | 461 kts | 251° |
| 2026-04-23 19:53 | 60.04083 | 23.43831 | 27947 ft | 462 kts | 252° |
| 2026-04-23 19:53 | 60.02501 | 23.38259 | 28448 ft | 462 kts | 252° |
| 2026-04-23 19:53 | 60.00884 | 23.32684 | 28794 ft | 465 kts | 252° |
| 2026-04-23 19:53 | 59.99294 | 23.27028 | 29075 ft | 468 kts | 252° |
| 2026-04-23 19:54 | 59.97676 | 23.21357 | 29424 ft | 471 kts | 252° |
| 2026-04-23 19:54 | 59.94598 | 23.09756 | 30118 ft | 469 kts | 255° |
| 2026-04-23 19:55 | 59.91687 | 22.97897 | 29959 ft | 485 kts | 256° |
| 2026-04-23 19:55 | 59.88827 | 22.85563 | 29932 ft | 504 kts | 251° |
| 2026-04-23 19:55 | 59.87134 | 22.79422 | 30037 ft | 504 kts | 252° |
| 2026-04-23 19:56 | 59.85491 | 22.73325 | 30505 ft | 493 kts | 253° |
| 2026-04-23 19:56 | 59.84107 | 22.67337 | 30516 ft | 472 kts | 260° |
| 2026-04-23 19:56 | 59.83012 | 22.61249 | 29745 ft | 468 kts | 262° |
| 2026-04-23 19:56 | 59.81971 | 22.55199 | 29411 ft | 454 kts | 263° |